Time;durP1;ratioP1;P1;durP2;ratioP2;P2;SDS_P1;SDS_P2;PMS_P1;PMS_P2;Temp;Humidity;BMP_temperature;BMP_pressure;BME280_temperature;BME280_humidity;BME280_pressure;Samples;Min_cycle;Max_cycle;Signal;HPM_P1;HPM_P2
2022/03/13 00:00:23;;;;;;;32.70;15.27;;;;;;;-1.39;44.36;101550.94;1630000;87;21111;-74
2022/03/13 00:02:54;;;;;;;29.73;14.90;;;;;;;-1.40;45.03;101551.36;1640262;85;21035;-74
2022/03/13 00:05:22;;;;;;;31.67;14.30;;;;;;;-1.48;45.00;101552.83;1634218;87;21036;-75
2022/03/13 00:07:50;;;;;;;28.67;14.33;;;;;;;-1.51;44.88;101555.30;1635066;87;21038;-74
2022/03/13 00:10:20;;;;;;;39.47;16.10;;;;;;;-1.57;44.92;101553.42;1631324;87;21107;-74
2022/03/13 00:12:48;;;;;;;31.45;15.75;;;;;;;-1.60;44.80;101552.47;1630519;88;21075;-74
2022/03/13 00:15:21;;;;;;;32.00;15.63;;;;;;;-1.61;44.62;101560.59;1628767;87;21037;-74
2022/03/13 00:17:50;;;;;;;26.30;13.47;;;;;;;-1.62;44.68;101561.81;1631757;87;21031;-75
2022/03/13 00:20:17;;;;;;;28.27;13.50;;;;;;;-1.65;44.66;101558.73;1631239;86;21576;-74
2022/03/13 00:22:44;;;;;;;29.50;13.73;;;;;;;-1.67;44.76;101556.52;1631710;87;21840;-74
2022/03/13 00:25:12;;;;;;;28.63;13.60;;;;;;;-1.62;45.15;101563.97;1631932;88;21058;-74
2022/03/13 00:27:39;;;;;;;26.80;12.90;;;;;;;-1.55;45.07;101561.58;1631383;88;21043;-74
2022/03/13 00:30:10;;;;;;;27.47;13.67;;;;;;;-1.53;45.70;101566.37;1619988;87;21005;-74
2022/03/13 00:32:38;;;;;;;28.80;13.30;;;;;;;-1.62;46.00;101562.69;1624058;87;21032;-74
2022/03/13 00:35:06;;;;;;;24.93;13.37;;;;;;;-1.73;46.06;101565.33;1632360;86;21053;-74
2022/03/13 00:37:33;;;;;;;32.13;15.20;;;;;;;-1.79;46.57;101566.43;1631653;88;21045;-74
2022/03/13 00:40:01;;;;;;;28.03;14.23;;;;;;;-1.80;46.42;101565.98;1631829;88;21488;-74
2022/03/13 00:42:29;;;;;;;26.33;14.23;;;;;;;-1.81;46.87;101568.06;1631681;88;21427;-74
2022/03/13 00:44:56;;;;;;;25.27;14.73;;;;;;;-1.79;47.16;101569.00;1631926;87;21105;-74
2022/03/13 00:47:23;;;;;;;29.33;14.63;;;;;;;-1.86;47.28;101564.09;1631698;88;21829;-75
2022/03/13 00:49:51;;;;;;;25.73;13.90;;;;;;;-1.90;47.28;101564.80;1631301;88;21104;-74
2022/03/13 00:52:18;;;;;;;27.87;13.13;;;;;;;-1.96;47.40;101567.59;1629459;86;21534;-76
2022/03/13 00:54:45;;;;;;;29.77;14.43;;;;;;;-2.05;47.21;101560.04;1622717;87;21052;-74
2022/03/13 00:57:12;;;;;;;29.03;12.47;;;;;;;-2.09;47.00;101556.89;1631464;87;21298;-74
2022/03/13 00:59:40;;;;;;;26.27;12.97;;;;;;;-2.07;47.29;101562.09;1630251;88;21170;-74
2022/03/13 01:02:08;;;;;;;24.60;12.53;;;;;;;-2.06;47.32;101555.70;1616694;87;20964;-74
2022/03/13 01:04:37;;;;;;;26.03;12.87;;;;;;;-2.07;47.61;101555.25;1632742;87;21044;-74
2022/03/13 01:07:05;;;;;;;26.73;13.47;;;;;;;-2.11;47.83;101558.53;1631837;88;21033;-73
2022/03/13 01:09:34;;;;;;;23.33;12.60;;;;;;;-2.14;47.81;101555.86;1630962;86;21087;-73
2022/03/13 01:12:01;;;;;;;27.03;13.60;;;;;;;-2.15;47.83;101557.11;1631629;87;21985;-76
2022/03/13 01:14:30;;;;;;;25.90;13.27;;;;;;;-2.16;47.79;101556.25;1631332;87;21025;-74
2022/03/13 01:17:05;;;;;;;25.90;13.53;;;;;;;-2.16;48.24;101549.83;1631151;88;21071;-74
2022/03/13 01:19:32;;;;;;;31.03;13.97;;;;;;;-2.19;48.58;101557.43;1631043;88;21068;-74
2022/03/13 01:21:59;;;;;;;26.70;13.40;;;;;;;-2.27;48.74;101555.88;1631175;88;21032;-74
2022/03/13 01:24:43;;;;;;;28.07;13.37;;;;;;;-2.32;48.71;101555.27;1631290;86;21462;-75
2022/03/13 01:27:15;;;;;;;27.43;13.20;;;;;;;-2.34;48.73;101549.20;1631122;88;21525;-75
2022/03/13 01:29:45;;;;;;;28.00;13.97;;;;;;;-2.34;48.84;101550.06;1577067;90;21100;-74
2022/03/13 01:32:14;;;;;;;30.07;13.83;;;;;;;-2.40;49.10;101542.16;1579333;89;21045;-74
2022/03/13 01:34:54;;;;;;;27.13;13.50;;;;;;;-2.49;48.83;101546.58;1604246;89;21114;-74
2022/03/13 01:37:29;;;;;;;28.53;14.90;;;;;;;-2.53;49.03;101541.27;1602302;89;21355;-75
2022/03/13 01:40:00;;;;;;;33.40;14.43;;;;;;;-2.60;48.79;101539.33;1604516;89;21041;-74
2022/03/13 01:42:27;;;;;;;30.23;14.18;;;;;;;-2.65;48.88;101532.74;1604162;87;21493;-74
2022/03/13 01:44:55;;;;;;;28.20;12.83;;;;;;;-2.63;49.43;101527.64;1603340;89;21009;-75
2022/03/13 01:47:23;;;;;;;31.27;14.17;;;;;;;-2.70;49.20;101524.87;1603512;89;21059;-74
2022/03/13 01:49:51;;;;;;;31.33;14.77;;;;;;;-2.74;49.39;101524.73;1603749;89;21122;-74
2022/03/13 01:52:26;;;;;;;29.33;13.97;;;;;;;-2.81;49.56;101514.64;1603374;89;21485;-75
2022/03/13 01:54:56;;;;;;;31.03;13.77;;;;;;;-2.86;49.60;101517.87;1595813;89;21051;-74
2022/03/13 01:57:24;;;;;;;25.83;13.37;;;;;;;-2.90;49.89;101511.77;1602058;87;21111;-74
2022/03/13 01:59:55;;;;;;;29.03;15.17;;;;;;;-2.92;50.29;101505.70;1601107;89;21092;-75
2022/03/13 02:02:28;;;;;;;27.33;13.73;;;;;;;-2.96;50.41;101507.29;1591811;90;21227;-74
2022/03/13 02:04:57;;;;;;;27.22;14.50;;;;;;;-2.98;50.37;101505.48;1629587;87;20986;-75
2022/03/13 02:07:27;;;;;;;29.10;13.93;;;;;;;-2.99;50.48;101511.45;1637640;87;21103;-74
2022/03/13 02:09:55;;;;;;;29.40;14.38;;;;;;;-3.01;50.46;101511.37;1677587;85;21509;-75
2022/03/13 02:12:26;;;;;;;26.83;14.23;;;;;;;-2.99;50.59;101511.03;1676752;85;21077;-75
2022/03/13 02:14:53;;;;;;;;;;;;;;;-3.01;50.53;101507.53;1669257;85;21136;-74
2022/03/13 02:17:30;;;;;;;30.77;14.77;;;;;;;-3.00;50.96;101505.42;1640736;86;20354;-75
2022/03/13 02:19:57;;;;;;;28.90;14.30;;;;;;;-2.99;50.97;101513.59;1691622;84;21030;-75
2022/03/13 02:22:25;;;;;;;29.23;13.93;;;;;;;-3.04;50.94;101512.97;1641901;86;22052;-75
2022/03/13 02:24:53;;;;;;;31.63;14.70;;;;;;;-3.08;51.27;101508.11;1631219;88;21023;-75
2022/03/13 02:27:24;;;;;;;31.47;14.70;;;;;;;-3.16;51.43;101511.70;1631494;88;21988;-75
2022/03/13 02:29:53;;;;;;;31.57;14.77;;;;;;;-3.23;51.42;101512.70;1636732;85;21099;-74
2022/03/13 02:32:20;;;;;;;30.80;15.10;;;;;;;-3.26;51.66;101515.16;1645703;85;21044;-75
2022/03/13 02:34:48;;;;;;;32.57;14.67;;;;;;;-3.29;51.60;101509.50;1638950;87;20921;-75
2022/03/13 02:37:27;;;;;;;29.80;14.27;;;;;;;-3.34;51.66;101509.73;1647449;87;21043;-75
2022/03/13 02:39:54;;;;;;;26.83;14.07;;;;;;;-3.37;51.77;101510.49;1632728;87;21157;-74
2022/03/13 02:42:21;;;;;;;26.67;13.73;;;;;;;-3.37;51.61;101509.62;1632406;87;21030;-75
2022/03/13 02:44:49;;;;;;;27.67;14.17;;;;;;;-3.38;51.71;101506.20;1632578;87;21027;-74
2022/03/13 02:47:16;;;;;;;31.10;14.33;;;;;;;-3.44;51.99;101505.94;1646044;87;21079;-74
2022/03/13 02:49:43;;;;;;;31.00;14.57;;;;;;;-3.48;51.99;101501.95;1644717;85;21036;-74
2022/03/13 02:52:11;;;;;;;31.73;14.47;;;;;;;-3.48;52.28;101500.25;1633669;87;21170;-75
2022/03/13 02:54:38;;;;;;;29.60;13.10;;;;;;;-3.50;52.40;101495.46;1645279;86;21040;-74
2022/03/13 02:57:05;;;;;;;29.13;13.17;;;;;;;-3.59;52.55;101498.56;1647657;87;21880;-74
2022/03/13 02:59:32;;;;;;;32.63;14.10;;;;;;;-3.60;52.43;101499.80;1638970;87;21050;-75
2022/03/13 03:02:04;;;;;;;30.10;13.97;;;;;;;-3.59;52.77;101500.25;1666017;86;21069;-75
2022/03/13 03:04:29;;;;;;;;;;;;;;;-3.63;52.87;101508.63;1645522;85;21163;-75
2022/03/13 03:07:03;;;;;;;30.97;13.83;;;;;;;-3.65;53.29;101507.30;1648357;86;20192;-75
2022/03/13 03:09:33;;;;;;;29.47;13.63;;;;;;;-3.69;53.16;101510.54;1652821;84;21043;-75
2022/03/13 03:12:04;;;;;;;28.60;13.83;;;;;;;-3.72;53.30;101507.86;1660990;85;21019;-74
2022/03/13 03:14:32;;;;;;;;;;;;;;;-3.76;53.19;101512.42;1661207;86;21034;-75
2022/03/13 03:16:59;;;;;;;29.33;13.63;;;;;;;-3.80;53.51;101509.25;1679899;85;21120;-74
2022/03/13 03:19:27;;;;;;;30.50;13.83;;;;;;;-3.88;53.43;101512.82;1639384;85;21098;-74
2022/03/13 03:21:54;;;;;;;27.63;13.73;;;;;;;-3.91;53.21;101512.67;1648490;86;21495;-75
2022/03/13 03:24:25;;;;;;;30.73;14.00;;;;;;;-3.90;53.25;101511.87;1630367;88;21469;-74
2022/03/13 03:26:55;;;;;;;32.45;14.63;;;;;;;-3.90;53.40;101505.89;1631219;88;21468;-74
2022/03/13 03:29:25;;;;;;;;;;;;;;;-3.89;53.54;101511.05;1632855;88;21169;-74
2022/03/13 03:31:53;;;;;;;29.67;13.70;;;;;;;-3.92;53.80;101503.25;1630861;88;20140;-74
2022/03/13 03:34:23;;;;;;;32.00;14.97;;;;;;;-3.97;53.59;101501.32;1630332;88;21028;-74
2022/03/13 03:36:55;;;;;;;32.38;15.32;;;;;;;-4.00;53.46;101500.80;1630664;86;21963;-74
2022/03/13 03:39:24;;;;;;;26.23;14.00;;;;;;;-4.02;53.67;101493.45;1631299;88;21277;-74
2022/03/13 03:41:53;;;;;;;29.77;14.83;;;;;;;-4.02;53.78;101497.70;1631228;88;21135;-74
2022/03/13 03:44:22;;;;;;;31.35;14.65;;;;;;;-4.01;53.94;101497.78;1631446;88;20886;-74
2022/03/13 03:46:50;;;;;;;34.00;14.97;;;;;;;-3.99;54.09;101501.28;1629272;88;21080;-74
2022/03/13 03:49:18;;;;;;;34.07;14.80;;;;;;;-4.00;53.87;101497.36;1630815;87;20976;-74
2022/03/13 03:51:45;;;;;;;33.60;15.37;;;;;;;-4.02;53.80;101497.70;1629091;87;21374;-74
2022/03/13 03:54:14;;;;;;;31.30;14.33;;;;;;;-4.03;53.70;101496.83;1627371;88;21123;-74
2022/03/13 03:56:41;;;;;;;33.27;14.80;;;;;;;-4.05;53.75;101495.89;1631744;88;20972;-75
2022/03/13 03:59:09;;;;;;;31.20;15.13;;;;;;;-4.09;53.89;101487.63;1631634;88;21034;-75
2022/03/13 04:01:39;;;;;;;30.10;14.30;;;;;;;-4.11;54.03;101489.25;1631725;88;21500;-74
2022/03/13 04:04:08;;;;;;;30.95;15.00;;;;;;;-4.11;54.08;101491.81;1632119;88;21098;-74
2022/03/13 04:06:38;;;;;;;34.10;15.77;;;;;;;-4.11;54.35;101488.84;1631278;88;21205;-74
2022/03/13 04:09:11;;;;;;;30.50;15.10;;;;;;;-4.10;54.48;101495.73;1626049;87;20980;-74
2022/03/13 04:11:40;;;;;;;33.53;15.37;;;;;;;-4.11;54.69;101490.53;1634757;86;21037;-75
2022/03/13 04:14:09;;;;;;;35.27;15.60;;;;;;;-4.08;54.98;101486.39;1635061;87;21060;-75
2022/03/13 04:16:36;;;;;;;37.27;15.83;;;;;;;-4.11;55.00;101490.12;1631985;88;21110;-74
2022/03/13 04:19:03;;;;;;;30.07;14.77;;;;;;;-4.07;55.12;101494.98;1632029;87;21538;-74
2022/03/13 04:21:31;;;;;;;31.27;15.10;;;;;;;-4.09;55.30;101491.06;1624147;88;21515;-74
2022/03/13 04:23:59;;;;;;;34.17;16.00;;;;;;;-4.08;55.47;101490.65;1631910;88;21091;-74
2022/03/13 04:26:26;;;;;;;27.53;14.30;;;;;;;-4.12;55.56;101492.64;1629639;88;21035;-74
2022/03/13 04:28:53;;;;;;;29.17;14.90;;;;;;;-4.16;55.71;101494.59;1616063;87;21057;-74
2022/03/13 04:31:20;;;;;;;30.17;15.00;;;;;;;-4.17;56.05;101495.41;1632030;87;21153;-74
2022/03/13 04:33:48;;;;;;;27.57;14.70;;;;;;;-4.20;56.00;101494.87;1631865;88;20972;-75
2022/03/13 04:36:20;;;;;;;31.50;15.60;;;;;;;-4.24;56.26;101499.39;1631633;88;21063;-75
2022/03/13 04:38:44;;;;;;;31.47;15.47;;;;;;;-4.25;56.30;101493.81;1630380;88;20992;-75
2022/03/13 04:41:11;;;;;;;36.47;15.63;;;;;;;-4.22;56.46;101495.63;1631402;88;21596;-74
2022/03/13 04:43:38;;;;;;;33.50;15.97;;;;;;;-4.20;56.56;101501.28;1631843;86;21929;-75
2022/03/13 04:46:06;;;;;;;38.53;14.97;;;;;;;-4.22;56.54;101502.89;1624936;88;21020;-75
2022/03/13 04:48:34;;;;;;;34.10;15.63;;;;;;;-4.27;56.68;101497.61;1626038;87;21031;-74
2022/03/13 04:51:01;;;;;;;32.33;14.67;;;;;;;-4.30;56.65;101500.02;1631009;88;21086;-74
2022/03/13 04:53:30;;;;;;;29.80;14.93;;;;;;;-4.30;56.78;101502.58;1631417;88;21137;-74
2022/03/13 04:55:57;;;;;;;28.20;14.10;;;;;;;-4.34;56.75;101501.13;1630015;87;21090;-74
2022/03/13 04:58:24;;;;;;;30.33;14.47;;;;;;;-4.33;56.88;101505.42;1631749;87;21530;-74
2022/03/13 05:00:53;;;;;;;26.30;12.73;;;;;;;-4.34;56.73;101510.09;1624704;87;21031;-74
2022/03/13 05:03:20;;;;;;;27.20;13.13;;;;;;;-4.39;56.73;101508.61;1623395;87;21052;-74
2022/03/13 05:05:48;;;;;;;25.37;12.27;;;;;;;-4.39;56.82;101515.00;1631579;88;21079;-74
2022/03/13 05:08:16;;;;;;;27.43;13.60;;;;;;;-4.37;56.89;101518.92;1628349;88;21797;-74
2022/03/13 05:10:46;;;;;;;26.27;12.30;;;;;;;-4.39;56.99;101518.84;1633175;87;21591;-74
2022/03/13 05:13:16;;;;;;;29.77;13.88;;;;;;;-4.41;56.98;101519.59;1630345;87;21075;-74
2022/03/13 05:15:45;;;;;;;29.87;13.65;;;;;;;-4.42;56.84;101521.28;1632152;85;21514;-74
2022/03/13 05:18:13;;;;;;;25.20;12.70;;;;;;;-4.41;56.98;101523.02;1637194;87;21071;-74
2022/03/13 05:20:41;;;;;;;27.30;13.17;;;;;;;-4.40;57.10;101523.50;1636798;87;21157;-74
2022/03/13 05:23:09;;;;;;;27.87;13.43;;;;;;;-4.35;57.28;101523.30;1636411;87;21021;-74
2022/03/13 05:25:37;;;;;;;25.10;12.67;;;;;;;-4.33;57.13;101522.93;1635160;87;21031;-74
2022/03/13 05:28:08;;;;;;;25.80;12.73;;;;;;;-4.35;57.09;101526.23;1619699;87;21060;-74
2022/03/13 05:30:36;;;;;;;29.18;13.28;;;;;;;-4.34;57.08;101522.47;1636693;87;26172;-74
2022/03/13 05:33:04;;;;;;;26.53;13.10;;;;;;;-4.30;57.27;101529.86;1638511;87;21150;-74
2022/03/13 05:35:31;;;;;;;24.80;12.90;;;;;;;-4.29;57.25;101530.35;1649458;85;21026;-74
2022/03/13 05:37:59;;;;;;;25.17;12.87;;;;;;;-4.23;57.46;101529.73;1610009;87;22045;-74
2022/03/13 05:40:27;;;;;;;26.70;12.30;;;;;;;-4.23;57.59;101531.87;1628403;86;21086;-74
2022/03/13 05:42:59;;;;;;;30.13;12.77;;;;;;;-4.22;57.65;101526.34;1669173;86;21146;-74
2022/03/13 05:45:28;;;;;;;30.57;14.13;;;;;;;-4.17;57.77;101528.70;1669095;86;21130;-74
2022/03/13 05:47:59;;;;;;;30.90;13.68;;;;;;;-4.15;57.84;101524.11;1665523;86;21031;-75
2022/03/13 05:50:29;;;;;;;28.15;14.38;;;;;;;-4.12;57.91;101527.20;1661568;85;21007;-75
2022/03/13 05:52:56;;;;;;;30.00;14.50;;;;;;;-4.05;58.11;101528.80;1653258;86;21515;-75
2022/03/13 05:55:28;;;;;;;32.30;14.83;;;;;;;-3.98;58.16;101536.31;1655319;86;21035;-74
2022/03/13 05:57:57;;;;;;;31.47;14.93;;;;;;;-3.89;58.05;101539.23;1669087;85;21155;-74
2022/03/13 06:00:26;;;;;;;30.57;15.20;;;;;;;-3.79;58.12;101545.61;1656880;86;20967;-74
2022/03/13 06:02:54;;;;;;;29.27;13.43;;;;;;;-3.70;58.30;101543.39;1637021;87;32589;-74
2022/03/13 06:05:22;;;;;;;27.37;14.10;;;;;;;-3.57;58.58;101541.30;1635818;87;21047;-74
2022/03/13 06:07:52;;;;;;;31.07;14.37;;;;;;;-3.43;58.63;101546.57;1650894;85;21091;-75
2022/03/13 06:10:19;;;;;;;26.17;13.43;;;;;;;-3.35;58.58;101541.33;1665716;86;21103;-75
2022/03/13 06:12:46;;;;;;;24.37;13.63;;;;;;;-3.25;58.35;101541.25;1637543;86;21035;-74
2022/03/13 06:15:15;;;;;;;28.23;14.03;;;;;;;-3.17;58.37;101543.28;1665929;85;20999;-74
2022/03/13 06:17:44;;;;;;;27.77;14.20;;;;;;;-3.07;58.16;101545.79;1665300;86;21584;-75
2022/03/13 06:20:14;;;;;;;32.10;15.90;;;;;;;-2.94;57.48;101547.09;1665600;86;21065;-76
2022/03/13 06:22:43;;;;;;;29.72;15.20;;;;;;;-2.79;57.38;101549.35;1665709;84;21902;-76
2022/03/13 06:25:13;;;;;;;27.20;15.07;;;;;;;-2.68;56.96;101554.88;1619208;87;21014;-74
2022/03/13 06:27:41;;;;;;;33.42;16.90;;;;;;;-2.59;56.62;101554.77;1656492;85;20932;-74
2022/03/13 06:30:20;;;;;;;29.37;15.90;;;;;;;-2.43;56.12;101548.89;1646833;86;21401;-77
2022/03/13 06:32:49;;;;;;;28.23;15.07;;;;;;;-2.29;55.59;101551.52;1679148;84;21035;-78
2022/03/13 06:35:19;;;;;;;28.87;15.13;;;;;;;-2.15;55.04;101552.84;1669585;85;21489;-74
2022/03/13 06:37:48;;;;;;;25.85;13.60;;;;;;;-2.00;54.94;101551.18;1652048;86;20922;-79
2022/03/13 06:40:18;;;;;;;29.03;14.03;;;;;;;-1.87;54.55;101553.33;1652426;86;21085;-75
2022/03/13 06:42:51;;;;;;;29.23;14.60;;;;;;;-1.76;54.18;101556.66;1662098;85;21041;-75
2022/03/13 06:45:19;;;;;;;23.43;12.00;;;;;;;-1.64;54.02;101558.31;1637428;87;21557;-75
2022/03/13 06:47:49;;;;;;;22.73;12.43;;;;;;;-1.53;53.99;101554.80;1620434;87;21113;-76
2022/03/13 06:50:19;;;;;;;25.55;12.88;;;;;;;-1.41;53.95;101561.63;1631313;87;21514;-82
2022/03/13 06:52:49;;;;;;;25.30;12.00;;;;;;;-1.30;53.77;101558.95;1631088;88;21027;-77
2022/03/13 06:55:18;;;;;;;23.83;11.73;;;;;;;-1.19;53.31;101561.43;1631225;87;21024;-77
2022/03/13 06:57:45;;;;;;;25.10;12.37;;;;;;;-1.06;53.03;101559.20;1632431;87;21063;-78
2022/03/13 07:00:15;;;;;;;18.43;9.90;;;;;;;-0.92;52.81;101563.91;1633385;86;21997;-79
2022/03/13 07:02:42;;;;;;;22.33;10.57;;;;;;;-0.77;52.48;101563.48;1608286;89;20935;-76
2022/03/13 07:05:10;;;;;;;23.47;10.27;;;;;;;-0.60;52.47;101565.66;1628084;87;21060;-79
2022/03/13 07:07:37;;;;;;;18.57;9.80;;;;;;;-0.45;52.18;101561.77;1633149;87;21039;-80
2022/03/13 07:10:11;;;;;;;19.37;10.17;;;;;;;-0.26;51.91;101566.98;1631068;87;21011;-78
2022/03/13 07:12:34;;;;;;;22.25;10.58;;;;;;;-0.08;51.66;101565.73;1645850;85;21133;-75
2022/03/13 07:15:03;;;;;;;19.63;10.37;;;;;;;0.08;51.39;101562.67;1635527;85;21032;-80
2022/03/13 07:17:30;;;;;;;23.00;11.23;;;;;;;0.25;51.01;101560.53;1640131;87;21013;-76
2022/03/13 07:19:57;;;;;;;21.13;10.40;;;;;;;0.43;50.75;101560.07;1632450;87;21082;-77
2022/03/13 07:22:24;;;;;;;20.97;10.03;;;;;;;0.60;50.42;101560.45;1634995;87;21009;-81
2022/03/13 07:24:52;;;;;;;22.40;10.07;;;;;;;0.77;50.01;101560.81;1635731;87;21105;-79
2022/03/13 07:27:19;;;;;;;19.80;9.90;;;;;;;0.93;49.82;101561.59;1633211;87;21033;-82
2022/03/13 07:29:49;;;;;;;20.07;9.80;;;;;;;1.08;49.27;101566.20;1633439;87;21525;-83
2022/03/13 07:32:16;;;;;;;19.40;10.17;;;;;;;1.22;48.95;101558.33;1634915;85;21526;-82
2022/03/13 07:34:43;;;;;;;17.37;9.70;;;;;;;1.38;48.70;101560.77;1645590;87;21038;-78
2022/03/13 07:37:10;;;;;;;21.20;10.87;;;;;;;1.52;48.59;101563.22;1645195;87;21101;-76
2022/03/13 07:39:41;;;;;;;18.53;9.70;;;;;;;1.67;48.42;101563.91;1645359;86;21040;-76
2022/03/13 07:42:12;;;;;;;18.93;10.47;;;;;;;1.81;47.92;101563.30;1635867;87;21233;-79
2022/03/13 07:44:39;;;;;;;23.47;10.97;;;;;;;1.93;47.42;101560.91;1632340;87;21029;-76
2022/03/13 07:47:07;;;;;;;23.23;11.23;;;;;;;2.05;47.38;101564.11;1642161;85;21008;-77
2022/03/13 07:49:34;;;;;;;18.07;10.60;;;;;;;2.15;47.15;101571.19;1645677;86;21107;-78
2022/03/13 07:52:04;;;;;;;20.53;10.80;;;;;;;2.22;46.83;101570.02;1644292;86;21122;-80
2022/03/13 07:54:31;;;;;;;19.15;10.40;;;;;;;2.31;46.73;101565.84;1635029;86;21014;-83
2022/03/13 07:56:58;;;;;;;20.90;10.57;;;;;;;2.43;46.69;101567.30;1640756;87;21067;-80
2022/03/13 07:59:25;;;;;;;21.30;10.63;;;;;;;2.51;46.23;101564.41;1639272;87;21079;-75
2022/03/13 08:01:52;;;;;;;21.43;10.07;;;;;;;2.62;46.13;101561.55;1640124;87;21127;-79
2022/03/13 08:04:19;;;;;;;24.03;12.93;;;;;;;2.74;45.87;101556.96;1639665;85;20958;-74
2022/03/13 08:06:46;;;;;;;20.47;10.97;;;;;;;2.85;45.56;101558.41;1657311;86;21051;-78
2022/03/13 08:09:14;;;;;;;19.87;10.77;;;;;;;2.96;45.44;101559.41;1663334;86;21090;-75
2022/03/13 08:11:42;;;;;;;21.57;11.17;;;;;;;3.07;45.21;101556.52;1646336;85;21030;-74
2022/03/13 08:14:10;;;;;;;21.10;10.37;;;;;;;3.19;44.72;101557.12;1639058;87;21294;-73
2022/03/13 08:16:37;;;;;;;21.57;10.33;;;;;;;3.31;44.43;101555.09;1631071;88;21015;-75
2022/03/13 08:19:05;;;;;;;18.53;10.47;;;;;;;3.42;44.13;101551.33;1631529;88;20937;-74
2022/03/13 08:21:32;;;;;;;17.90;10.13;;;;;;;3.55;44.03;101554.50;1631778;86;21025;-73
2022/03/13 08:23:59;;;;;;;17.10;9.43;;;;;;;3.69;44.05;101546.86;1631246;87;21040;-73
2022/03/13 08:26:27;;;;;;;21.23;10.10;;;;;;;3.82;43.57;101547.82;1666600;86;21836;-74
2022/03/13 08:28:54;;;;;;;17.70;10.37;;;;;;;3.95;43.39;101547.94;1667485;86;21034;-75
2022/03/13 08:31:22;;;;;;;18.17;10.30;;;;;;;4.11;43.33;101545.48;1666806;86;21360;-75
2022/03/13 08:33:50;;;;;;;17.60;10.37;;;;;;;4.28;43.36;101544.31;1667994;86;21043;-74
2022/03/13 08:36:17;;;;;;;17.53;10.10;;;;;;;4.47;43.04;101543.58;1639449;87;21663;-75
2022/03/13 08:38:44;;;;;;;18.60;9.93;;;;;;;4.63;42.64;101545.41;1639674;87;21121;-73
2022/03/13 08:41:12;;;;;;;20.37;10.47;;;;;;;4.81;42.30;101539.88;1667925;86;21547;-74
2022/03/13 08:43:39;;;;;;;20.20;11.20;;;;;;;5.01;42.13;101536.91;1639567;87;21094;-73
2022/03/13 08:46:06;;;;;;;16.17;9.97;;;;;;;5.20;41.63;101528.76;1639343;87;21517;-74
2022/03/13 08:48:35;;;;;;;16.07;10.03;;;;;;;5.40;41.57;101527.51;1668250;86;21547;-73
2022/03/13 08:51:03;;;;;;;18.97;10.40;;;;;;;5.61;41.08;101523.23;1671877;85;21788;-73
2022/03/13 08:53:30;;;;;;;14.07;8.90;;;;;;;5.80;40.73;101519.78;1660447;86;21032;-73
2022/03/13 08:55:57;;;;;;;16.33;9.43;;;;;;;6.01;40.43;101522.43;1660788;86;21048;-73
2022/03/13 08:58:24;;;;;;;13.70;9.20;;;;;;;6.23;40.02;101514.58;1660413;85;21512;-73
2022/03/13 09:00:51;;;;;;;13.93;8.90;;;;;;;6.47;39.80;101526.26;1662668;86;21136;-73
2022/03/13 09:03:19;;;;;;;14.93;8.10;;;;;;;6.70;38.90;101527.94;1666419;86;21120;-73
2022/03/13 09:05:48;;;;;;;11.13;6.90;;;;;;;6.91;38.36;101510.92;1668167;86;21007;-73
2022/03/13 09:08:16;;;;;;;10.20;6.90;;;;;;;7.14;38.14;101510.81;1667946;86;21026;-73
2022/03/13 09:10:43;;;;;;;10.33;6.63;;;;;;;7.36;37.45;101510.70;1667986;84;21074;-74
2022/03/13 09:13:10;;;;;;;11.63;6.73;;;;;;;7.57;37.43;101511.87;1667878;86;21108;-76
2022/03/13 09:15:39;;;;;;;10.20;6.63;;;;;;;7.78;36.66;101522.58;1668001;86;21964;-74
2022/03/13 09:18:07;;;;;;;11.27;6.70;;;;;;;7.91;35.63;101514.67;1667950;86;21050;-73
2022/03/13 09:20:34;;;;;;;11.67;7.30;;;;;;;8.07;35.48;101511.50;1667973;86;21011;-77
2022/03/13 09:23:02;;;;;;;11.57;7.90;;;;;;;8.22;35.09;101513.51;1667982;86;21488;-75
2022/03/13 09:25:31;;;;;;;12.80;6.97;;;;;;;8.40;34.69;101521.66;1667859;86;21081;-74
2022/03/13 09:27:58;;;;;;;12.03;6.93;;;;;;;8.60;34.42;101511.43;1667717;86;21802;-74
2022/03/13 09:30:25;;;;;;;10.63;7.30;;;;;;;8.78;34.23;101510.34;1667711;86;21086;-77
2022/03/13 09:32:52;;;;;;;10.90;6.57;;;;;;;9.01;34.01;101513.55;1667985;86;20943;-73
2022/03/13 09:35:19;;;;;;;12.37;8.43;;;;;;;9.27;33.99;101513.20;1667927;86;21034;-74
2022/03/13 09:37:46;;;;;;;16.70;7.10;;;;;;;9.46;33.33;101516.88;1667954;85;21098;-74
2022/03/13 09:40:17;;;;;;;10.93;7.63;;;;;;;9.63;33.27;101504.84;1668215;85;22021;-72
2022/03/13 09:42:45;;;;;;;12.77;7.57;;;;;;;9.76;32.56;101518.16;1667957;86;21023;-73
2022/03/13 09:45:13;;;;;;;11.53;7.63;;;;;;;9.89;32.11;101518.81;1668208;86;21070;-76
2022/03/13 09:47:41;;;;;;;12.77;7.80;;;;;;;10.02;31.68;101519.03;1668046;86;21022;-73
2022/03/13 09:50:14;;;;;;;13.53;8.30;;;;;;;10.19;31.55;101514.81;1668351;86;21034;-73
2022/03/13 09:52:42;;;;;;;9.93;6.87;;;;;;;10.33;31.07;101514.15;1668107;86;21106;-73
2022/03/13 09:55:12;;;;;;;11.60;7.30;;;;;;;10.47;30.76;101521.34;1668145;86;21034;-74
2022/03/13 09:57:41;;;;;;;12.40;7.60;;;;;;;10.60;30.43;101510.61;1667921;85;21046;-74
2022/03/13 10:00:12;;;;;;;11.37;7.30;;;;;;;10.75;30.32;101502.42;1668234;85;21035;-74
2022/03/13 10:02:43;;;;;;;11.87;7.00;;;;;;;10.97;30.39;101505.92;1668107;86;21106;-75
2022/03/13 10:05:17;;;;;;;11.13;6.93;;;;;;;11.15;30.21;101507.70;1668295;86;21100;-73
2022/03/13 10:08:01;;;;;;;10.77;6.93;;;;;;;11.22;29.66;101504.94;1667815;86;21031;-73
2022/03/13 10:10:32;;;;;;;10.77;7.20;;;;;;;11.24;29.12;101506.64;1667878;85;21090;-74
2022/03/13 10:13:01;;;;;;;10.87;7.20;;;;;;;11.34;29.18;101501.61;1639332;87;21019;-73
2022/03/13 10:15:33;;;;;;;10.67;7.50;;;;;;;11.48;28.90;101502.61;1642278;87;21548;-74
2022/03/13 10:18:17;;;;;;;12.57;6.80;;;;;;;11.60;28.70;101506.70;1618934;87;21124;-75
2022/03/13 10:20:47;;;;;;;9.50;6.50;;;;;;;11.75;28.34;101502.83;1632671;87;21007;-75
2022/03/13 10:23:23;;;;;;;11.43;7.53;;;;;;;11.93;28.07;101501.56;1632272;88;21067;-74
2022/03/13 10:25:53;;;;;;;20.40;13.45;;;;;;;12.12;27.82;101492.77;1631072;87;21507;-79
2022/03/13 10:28:30;;;;;;;13.48;9.18;;;;;;;12.23;27.53;101500.78;1632306;88;21042;-75
2022/03/13 10:31:05;;;;;;;12.58;8.58;;;;;;;12.35;27.24;101497.41;1634754;87;22007;-77
2022/03/13 10:33:47;;;;;;;9.98;7.30;;;;;;;12.47;27.14;101503.21;1637632;87;21007;-77
2022/03/13 10:36:31;;;;;;;14.10;8.53;;;;;;;12.57;26.79;101485.39;1610334;89;21023;-77
2022/03/13 10:39:04;;;;;;;12.78;8.55;;;;;;;12.72;26.57;101480.17;1636516;87;21055;-73
2022/03/13 10:41:44;;;;;;;11.08;8.03;;;;;;;12.96;26.67;101482.52;1632111;86;21191;-76
2022/03/13 10:44:16;;;;;;;12.35;8.35;;;;;;;13.18;26.86;101477.47;1632966;87;21851;-76
2022/03/13 10:46:43;;;;;;;12.88;9.30;;;;;;;13.50;26.59;101476.97;1637835;87;21038;-78
2022/03/13 10:49:13;;;;;;;11.88;8.83;;;;;;;13.57;26.15;101484.60;1635413;87;21481;-75
2022/03/13 10:51:45;;;;;;;;;;;;;;;13.56;25.99;101473.67;1635099;87;21094;-79
2022/03/13 10:54:32;;;;;;;14.70;10.35;;;;;;;13.61;25.46;101483.61;1634558;87;20646;-75
2022/03/13 10:57:11;;;;;;;15.88;11.40;;;;;;;13.70;25.65;101486.86;1637396;87;21981;-77
2022/03/13 10:59:41;;;;;;;21.62;16.70;;;;;;;13.80;25.28;101484.30;1633849;87;21039;-74
2022/03/13 11:02:22;;;;;;;15.23;11.93;;;;;;;14.01;25.33;101489.33;1631137;87;21071;-74
2022/03/13 11:04:55;;;;;;;16.07;10.20;;;;;;;14.27;25.17;101485.78;1638006;87;21039;-73
2022/03/13 11:07:26;;;;;;;14.40;10.43;;;;;;;14.42;24.95;101465.47;1635990;86;21026;-75
2022/03/13 11:09:57;;;;;;;18.80;11.88;;;;;;;14.49;24.88;101469.62;1630474;88;21124;-76
2022/03/13 11:12:26;;;;;;;14.38;10.03;;;;;;;14.60;24.51;101474.51;1643732;86;21088;-77
2022/03/13 11:15:01;;;;;;;14.78;9.63;;;;;;;14.71;24.44;101467.09;1632275;88;21087;-81
2022/03/13 11:17:32;;;;;;;15.98;11.22;;;;;;;14.95;24.76;101459.14;1648857;87;21103;-76
2022/03/13 11:20:04;;;;;;;15.50;11.80;;;;;;;15.24;24.60;101451.86;1634367;87;21313;-79
2022/03/13 11:22:32;;;;;;;15.63;11.25;;;;;;;15.39;24.18;101459.19;1648809;87;21786;-76